sensor_id;sensor_type;location;lat;lon;timestamp;P1;durP1;ratioP1;P2;durP2;ratioP2
68234;SDS011;55052;52.056;5.296;2023-07-22T00:00:31;11.90;;;6.55;;
68234;SDS011;55052;52.056;5.296;2023-07-22T00:02:58;10.43;;;6.63;;
68234;SDS011;55052;52.056;5.296;2023-07-22T00:05:25;10.50;;;6.57;;
68234;SDS011;55052;52.056;5.296;2023-07-22T00:07:52;10.82;;;6.50;;
68234;SDS011;55052;52.056;5.296;2023-07-22T00:10:18;9.82;;;6.55;;
68234;SDS011;55052;52.056;5.296;2023-07-22T00:12:45;10.02;;;6.32;;
68234;SDS011;55052;52.056;5.296;2023-07-22T00:15:12;13.70;;;6.97;;
68234;SDS011;55052;52.056;5.296;2023-07-22T00:17:40;11.63;;;6.70;;
68234;SDS011;55052;52.056;5.296;2023-07-22T00:20:08;13.07;;;7.00;;
68234;SDS011;55052;52.056;5.296;2023-07-22T00:22:39;12.57;;;6.57;;
68234;SDS011;55052;52.056;5.296;2023-07-22T00:25:09;12.30;;;7.78;;
68234;SDS011;55052;52.056;5.296;2023-07-22T00:27:37;10.90;;;6.68;;
68234;SDS011;55052;52.056;5.296;2023-07-22T00:30:05;12.88;;;7.95;;
68234;SDS011;55052;52.056;5.296;2023-07-22T00:32:33;14.68;;;9.00;;
68234;SDS011;55052;52.056;5.296;2023-07-22T00:35:00;14.90;;;8.43;;
68234;SDS011;55052;52.056;5.296;2023-07-22T00:37:27;13.73;;;8.15;;
68234;SDS011;55052;52.056;5.296;2023-07-22T00:39:53;13.80;;;8.60;;
68234;SDS011;55052;52.056;5.296;2023-07-22T00:42:21;13.60;;;7.70;;
68234;SDS011;55052;52.056;5.296;2023-07-22T00:44:48;12.23;;;7.75;;
68234;SDS011;55052;52.056;5.296;2023-07-22T00:47:15;11.60;;;7.40;;
68234;SDS011;55052;52.056;5.296;2023-07-22T00:49:43;11.52;;;7.53;;
68234;SDS011;55052;52.056;5.296;2023-07-22T00:52:13;14.05;;;8.02;;
68234;SDS011;55052;52.056;5.296;2023-07-22T00:54:40;11.75;;;7.20;;
68234;SDS011;55052;52.056;5.296;2023-07-22T00:57:06;12.55;;;7.13;;
68234;SDS011;55052;52.056;5.296;2023-07-22T00:59:33;12.77;;;6.70;;
68234;SDS011;55052;52.056;5.296;2023-07-22T01:02:01;13.38;;;7.18;;
68234;SDS011;55052;52.056;5.296;2023-07-22T01:04:28;13.75;;;7.20;;
68234;SDS011;55052;52.056;5.296;2023-07-22T01:06:54;13.88;;;7.47;;
68234;SDS011;55052;52.056;5.296;2023-07-22T01:09:22;11.18;;;7.15;;
68234;SDS011;55052;52.056;5.296;2023-07-22T01:11:49;11.20;;;7.15;;
68234;SDS011;55052;52.056;5.296;2023-07-22T01:14:16;11.60;;;6.80;;
68234;SDS011;55052;52.056;5.296;2023-07-22T01:16:43;11.73;;;7.25;;
68234;SDS011;55052;52.056;5.296;2023-07-22T01:19:10;12.38;;;6.80;;
68234;SDS011;55052;52.056;5.296;2023-07-22T01:21:41;11.57;;;7.05;;
68234;SDS011;55052;52.056;5.296;2023-07-22T01:24:09;13.43;;;8.00;;
68234;SDS011;55052;52.056;5.296;2023-07-22T01:26:35;14.15;;;8.55;;
68234;SDS011;55052;52.056;5.296;2023-07-22T01:29:03;11.90;;;7.55;;
68234;SDS011;55052;52.056;5.296;2023-07-22T01:31:38;12.40;;;7.07;;
68234;SDS011;55052;52.056;5.296;2023-07-22T01:34:05;12.63;;;7.22;;
68234;SDS011;55052;52.056;5.296;2023-07-22T01:36:32;13.68;;;7.75;;
68234;SDS011;55052;52.056;5.296;2023-07-22T01:38:59;13.40;;;7.50;;
68234;SDS011;55052;52.056;5.296;2023-07-22T01:41:26;12.02;;;7.38;;
68234;SDS011;55052;52.056;5.296;2023-07-22T01:43:53;14.23;;;7.97;;
68234;SDS011;55052;52.056;5.296;2023-07-22T01:46:20;13.85;;;8.05;;
68234;SDS011;55052;52.056;5.296;2023-07-22T01:48:48;12.95;;;7.80;;
68234;SDS011;55052;52.056;5.296;2023-07-22T01:51:14;12.63;;;7.70;;
68234;SDS011;55052;52.056;5.296;2023-07-22T01:53:41;13.38;;;8.10;;
68234;SDS011;55052;52.056;5.296;2023-07-22T01:56:08;13.20;;;8.07;;
68234;SDS011;55052;52.056;5.296;2023-07-22T01:58:35;10.68;;;6.68;;
68234;SDS011;55052;52.056;5.296;2023-07-22T02:01:01;11.90;;;7.40;;
68234;SDS011;55052;52.056;5.296;2023-07-22T02:03:28;12.68;;;7.60;;
68234;SDS011;55052;52.056;5.296;2023-07-22T02:06:02;13.20;;;7.68;;
68234;SDS011;55052;52.056;5.296;2023-07-22T02:08:29;12.07;;;7.45;;
68234;SDS011;55052;52.056;5.296;2023-07-22T02:11:01;12.45;;;7.55;;
68234;SDS011;55052;52.056;5.296;2023-07-22T02:13:30;12.10;;;7.63;;
68234;SDS011;55052;52.056;5.296;2023-07-22T02:15:58;11.52;;;7.53;;
68234;SDS011;55052;52.056;5.296;2023-07-22T02:18:25;11.52;;;7.43;;
68234;SDS011;55052;52.056;5.296;2023-07-22T02:20:52;12.13;;;7.40;;
68234;SDS011;55052;52.056;5.296;2023-07-22T02:23:19;12.57;;;7.50;;
68234;SDS011;55052;52.056;5.296;2023-07-22T02:25:50;11.15;;;6.88;;
68234;SDS011;55052;52.056;5.296;2023-07-22T02:28:20;11.95;;;7.45;;
68234;SDS011;55052;52.056;5.296;2023-07-22T02:30:49;11.20;;;6.65;;
68234;SDS011;55052;52.056;5.296;2023-07-22T02:33:21;12.23;;;7.45;;
68234;SDS011;55052;52.056;5.296;2023-07-22T02:35:48;11.32;;;7.07;;
68234;SDS011;55052;52.056;5.296;2023-07-22T02:38:15;11.10;;;7.28;;
68234;SDS011;55052;52.056;5.296;2023-07-22T02:40:42;11.30;;;6.68;;
68234;SDS011;55052;52.056;5.296;2023-07-22T02:43:09;11.82;;;6.72;;
68234;SDS011;55052;52.056;5.296;2023-07-22T02:45:36;13.15;;;6.85;;
68234;SDS011;55052;52.056;5.296;2023-07-22T02:48:04;13.48;;;7.22;;
68234;SDS011;55052;52.056;5.296;2023-07-22T02:50:31;11.35;;;7.13;;
68234;SDS011;55052;52.056;5.296;2023-07-22T02:52:58;11.27;;;6.93;;
68234;SDS011;55052;52.056;5.296;2023-07-22T02:55:25;11.27;;;6.90;;
68234;SDS011;55052;52.056;5.296;2023-07-22T02:57:52;11.73;;;6.72;;
68234;SDS011;55052;52.056;5.296;2023-07-22T03:00:19;11.15;;;6.60;;
68234;SDS011;55052;52.056;5.296;2023-07-22T03:02:52;11.77;;;7.20;;
68234;SDS011;55052;52.056;5.296;2023-07-22T03:05:27;13.23;;;7.40;;
68234;SDS011;55052;52.056;5.296;2023-07-22T03:07:54;13.45;;;7.50;;
68234;SDS011;55052;52.056;5.296;2023-07-22T03:10:21;12.60;;;7.50;;
68234;SDS011;55052;52.056;5.296;2023-07-22T03:12:49;11.57;;;7.22;;
68234;SDS011;55052;52.056;5.296;2023-07-22T03:15:16;11.55;;;6.78;;
68234;SDS011;55052;52.056;5.296;2023-07-22T03:17:45;12.18;;;6.78;;
68234;SDS011;55052;52.056;5.296;2023-07-22T03:20:12;13.98;;;7.95;;
68234;SDS011;55052;52.056;5.296;2023-07-22T03:22:43;13.75;;;7.90;;
68234;SDS011;55052;52.056;5.296;2023-07-22T03:25:11;13.25;;;7.80;;
68234;SDS011;55052;52.056;5.296;2023-07-22T03:27:39;11.95;;;7.40;;
68234;SDS011;55052;52.056;5.296;2023-07-22T03:30:07;11.20;;;6.47;;
68234;SDS011;55052;52.056;5.296;2023-07-22T03:32:34;12.55;;;7.90;;
68234;SDS011;55052;52.056;5.296;2023-07-22T03:35:01;11.43;;;7.07;;
68234;SDS011;55052;52.056;5.296;2023-07-22T03:37:29;12.68;;;8.00;;
68234;SDS011;55052;52.056;5.296;2023-07-22T03:39:56;12.90;;;7.50;;
68234;SDS011;55052;52.056;5.296;2023-07-22T03:42:22;11.73;;;7.25;;
68234;SDS011;55052;52.056;5.296;2023-07-22T03:44:49;12.77;;;6.97;;
68234;SDS011;55052;52.056;5.296;2023-07-22T03:47:16;11.32;;;7.50;;
68234;SDS011;55052;52.056;5.296;2023-07-22T03:49:43;11.50;;;7.20;;
68234;SDS011;55052;52.056;5.296;2023-07-22T03:52:09;11.80;;;7.60;;
68234;SDS011;55052;52.056;5.296;2023-07-22T03:57:07;13.00;;;7.60;;
68234;SDS011;55052;52.056;5.296;2023-07-22T03:59:33;13.93;;;7.63;;
68234;SDS011;55052;52.056;5.296;2023-07-22T04:02:00;11.95;;;7.20;;
68234;SDS011;55052;52.056;5.296;2023-07-22T04:04:27;12.38;;;7.25;;
68234;SDS011;55052;52.056;5.296;2023-07-22T04:06:54;12.02;;;6.50;;
68234;SDS011;55052;52.056;5.296;2023-07-22T04:09:21;14.77;;;7.45;;
68234;SDS011;55052;52.056;5.296;2023-07-22T04:11:48;10.45;;;6.60;;
68234;SDS011;55052;52.056;5.296;2023-07-22T04:14:15;12.02;;;6.70;;
68234;SDS011;55052;52.056;5.296;2023-07-22T04:16:42;12.27;;;7.18;;
68234;SDS011;55052;52.056;5.296;2023-07-22T04:19:09;13.38;;;7.18;;
68234;SDS011;55052;52.056;5.296;2023-07-22T04:21:35;12.88;;;7.15;;
68234;SDS011;55052;52.056;5.296;2023-07-22T04:24:02;14.07;;;7.43;;
68234;SDS011;55052;52.056;5.296;2023-07-22T04:26:30;13.50;;;7.10;;
68234;SDS011;55052;52.056;5.296;2023-07-22T04:28:57;11.02;;;7.13;;
68234;SDS011;55052;52.056;5.296;2023-07-22T04:31:23;11.63;;;7.35;;
68234;SDS011;55052;52.056;5.296;2023-07-22T04:33:50;13.85;;;7.65;;
68234;SDS011;55052;52.056;5.296;2023-07-22T04:36:17;14.05;;;8.02;;
68234;SDS011;55052;52.056;5.296;2023-07-22T04:38:44;12.57;;;7.10;;
68234;SDS011;55052;52.056;5.296;2023-07-22T04:41:11;12.52;;;7.32;;
68234;SDS011;55052;52.056;5.296;2023-07-22T04:43:38;10.05;;;6.45;;
68234;SDS011;55052;52.056;5.296;2023-07-22T04:46:06;14.57;;;6.88;;
68234;SDS011;55052;52.056;5.296;2023-07-22T04:48:33;12.45;;;7.00;;
68234;SDS011;55052;52.056;5.296;2023-07-22T04:51:00;12.23;;;6.82;;
68234;SDS011;55052;52.056;5.296;2023-07-22T04:53:27;12.07;;;7.28;;
68234;SDS011;55052;52.056;5.296;2023-07-22T04:55:53;12.50;;;7.35;;
68234;SDS011;55052;52.056;5.296;2023-07-22T04:58:21;15.60;;;7.63;;
68234;SDS011;55052;52.056;5.296;2023-07-22T05:00:48;12.32;;;6.93;;
68234;SDS011;55052;52.056;5.296;2023-07-22T05:03:15;15.02;;;7.88;;
68234;SDS011;55052;52.056;5.296;2023-07-22T05:05:42;15.18;;;7.80;;
68234;SDS011;55052;52.056;5.296;2023-07-22T05:08:09;14.90;;;7.43;;
68234;SDS011;55052;52.056;5.296;2023-07-22T05:10:36;14.50;;;7.97;;
68234;SDS011;55052;52.056;5.296;2023-07-22T05:13:04;15.57;;;8.32;;
68234;SDS011;55052;52.056;5.296;2023-07-22T05:15:31;14.43;;;8.52;;
68234;SDS011;55052;52.056;5.296;2023-07-22T05:17:58;15.43;;;8.45;;
68234;SDS011;55052;52.056;5.296;2023-07-22T05:20:25;15.20;;;8.93;;
68234;SDS011;55052;52.056;5.296;2023-07-22T05:22:52;16.10;;;9.07;;
68234;SDS011;55052;52.056;5.296;2023-07-22T05:25:18;15.50;;;9.10;;
68234;SDS011;55052;52.056;5.296;2023-07-22T05:27:45;17.48;;;9.70;;
68234;SDS011;55052;52.056;5.296;2023-07-22T05:30:12;16.15;;;8.80;;
68234;SDS011;55052;52.056;5.296;2023-07-22T05:38:15;17.25;;;9.35;;
68234;SDS011;55052;52.056;5.296;2023-07-22T05:40:42;25.65;;;11.27;;
68234;SDS011;55052;52.056;5.296;2023-07-22T05:43:09;19.20;;;10.63;;
68234;SDS011;55052;52.056;5.296;2023-07-22T05:45:36;18.88;;;10.63;;
68234;SDS011;55052;52.056;5.296;2023-07-22T05:48:03;22.17;;;12.52;;
68234;SDS011;55052;52.056;5.296;2023-07-22T05:50:31;22.55;;;12.18;;
68234;SDS011;55052;52.056;5.296;2023-07-22T05:52:57;24.08;;;12.82;;
68234;SDS011;55052;52.056;5.296;2023-07-22T05:55:24;24.08;;;12.50;;
68234;SDS011;55052;52.056;5.296;2023-07-22T05:57:52;21.92;;;12.07;;
68234;SDS011;55052;52.056;5.296;2023-07-22T06:00:19;21.25;;;11.80;;
68234;SDS011;55052;52.056;5.296;2023-07-22T06:02:47;24.13;;;13.50;;
68234;SDS011;55052;52.056;5.296;2023-07-22T06:05:15;27.92;;;14.60;;
68234;SDS011;55052;52.056;5.296;2023-07-22T06:07:42;25.60;;;13.68;;
68234;SDS011;55052;52.056;5.296;2023-07-22T06:10:09;25.80;;;13.20;;
68234;SDS011;55052;52.056;5.296;2023-07-22T06:12:36;26.08;;;14.32;;
68234;SDS011;55052;52.056;5.296;2023-07-22T06:15:04;29.00;;;15.07;;
68234;SDS011;55052;52.056;5.296;2023-07-22T06:17:31;29.70;;;15.13;;
68234;SDS011;55052;52.056;5.296;2023-07-22T06:19:58;31.55;;;15.60;;
68234;SDS011;55052;52.056;5.296;2023-07-22T06:22:25;28.27;;;15.30;;
68234;SDS011;55052;52.056;5.296;2023-07-22T06:24:52;27.73;;;15.93;;
68234;SDS011;55052;52.056;5.296;2023-07-22T06:27:18;32.30;;;15.35;;
68234;SDS011;55052;52.056;5.296;2023-07-22T06:29:45;31.98;;;15.90;;
68234;SDS011;55052;52.056;5.296;2023-07-22T06:32:12;30.67;;;16.33;;
68234;SDS011;55052;52.056;5.296;2023-07-22T06:34:39;30.17;;;15.60;;
68234;SDS011;55052;52.056;5.296;2023-07-22T06:37:05;30.67;;;15.98;;
68234;SDS011;55052;52.056;5.296;2023-07-22T06:39:32;29.17;;;15.90;;
68234;SDS011;55052;52.056;5.296;2023-07-22T06:41:59;35.45;;;17.13;;
68234;SDS011;55052;52.056;5.296;2023-07-22T06:44:26;33.03;;;16.25;;
68234;SDS011;55052;52.056;5.296;2023-07-22T06:46:53;28.70;;;15.40;;
68234;SDS011;55052;52.056;5.296;2023-07-22T06:49:19;30.25;;;16.70;;
68234;SDS011;55052;52.056;5.296;2023-07-22T06:51:46;32.05;;;17.13;;
68234;SDS011;55052;52.056;5.296;2023-07-22T06:54:13;30.42;;;15.73;;
68234;SDS011;55052;52.056;5.296;2023-07-22T06:56:40;30.63;;;17.80;;
68234;SDS011;55052;52.056;5.296;2023-07-22T06:59:07;38.15;;;16.38;;
68234;SDS011;55052;52.056;5.296;2023-07-22T07:01:35;30.90;;;16.02;;
68234;SDS011;55052;52.056;5.296;2023-07-22T07:04:01;28.88;;;15.60;;
68234;SDS011;55052;52.056;5.296;2023-07-22T07:06:28;29.45;;;16.38;;
68234;SDS011;55052;52.056;5.296;2023-07-22T07:08:59;33.95;;;16.70;;
68234;SDS011;55052;52.056;5.296;2023-07-22T07:11:28;28.52;;;16.30;;
68234;SDS011;55052;52.056;5.296;2023-07-22T07:13:56;30.55;;;16.58;;
68234;SDS011;55052;52.056;5.296;2023-07-22T07:16:26;29.58;;;15.98;;
68234;SDS011;55052;52.056;5.296;2023-07-22T07:18:55;28.85;;;15.05;;
68234;SDS011;55052;52.056;5.296;2023-07-22T07:21:22;29.10;;;14.32;;
68234;SDS011;55052;52.056;5.296;2023-07-22T07:23:50;26.67;;;14.15;;
68234;SDS011;55052;52.056;5.296;2023-07-22T07:26:18;26.50;;;14.93;;
68234;SDS011;55052;52.056;5.296;2023-07-22T07:28:46;28.50;;;14.07;;
68234;SDS011;55052;52.056;5.296;2023-07-22T07:31:13;28.55;;;14.32;;
68234;SDS011;55052;52.056;5.296;2023-07-22T07:33:40;27.48;;;14.88;;
68234;SDS011;55052;52.056;5.296;2023-07-22T07:36:06;25.38;;;14.15;;
68234;SDS011;55052;52.056;5.296;2023-07-22T07:38:33;23.02;;;13.40;;
68234;SDS011;55052;52.056;5.296;2023-07-22T07:41:01;27.83;;;13.20;;
68234;SDS011;55052;52.056;5.296;2023-07-22T07:43:30;24.70;;;13.07;;
68234;SDS011;55052;52.056;5.296;2023-07-22T07:48:47;22.73;;;14.25;;
68234;SDS011;55052;52.056;5.296;2023-07-22T07:51:15;24.58;;;13.15;;
68234;SDS011;55052;52.056;5.296;2023-07-22T07:53:44;23.00;;;12.63;;
68234;SDS011;55052;52.056;5.296;2023-07-22T07:56:13;29.85;;;13.20;;
68234;SDS011;55052;52.056;5.296;2023-07-22T07:58:41;23.50;;;12.90;;
68234;SDS011;55052;52.056;5.296;2023-07-22T08:01:08;24.38;;;12.05;;
68234;SDS011;55052;52.056;5.296;2023-07-22T08:03:35;25.20;;;13.15;;
68234;SDS011;55052;52.056;5.296;2023-07-22T08:06:03;23.80;;;13.05;;
68234;SDS011;55052;52.056;5.296;2023-07-22T08:08:30;25.73;;;12.75;;
68234;SDS011;55052;52.056;5.296;2023-07-22T08:11:00;24.65;;;12.73;;
68234;SDS011;55052;52.056;5.296;2023-07-22T08:13:28;24.63;;;12.68;;
68234;SDS011;55052;52.056;5.296;2023-07-22T08:15:57;22.50;;;11.82;;
68234;SDS011;55052;52.056;5.296;2023-07-22T08:18:24;21.92;;;11.57;;
68234;SDS011;55052;52.056;5.296;2023-07-22T08:20:55;28.63;;;12.25;;
68234;SDS011;55052;52.056;5.296;2023-07-22T08:23:22;21.48;;;12.63;;
68234;SDS011;55052;52.056;5.296;2023-07-22T08:25:49;19.45;;;11.13;;
68234;SDS011;55052;52.056;5.296;2023-07-22T08:28:16;21.92;;;12.27;;
68234;SDS011;55052;52.056;5.296;2023-07-22T08:30:43;23.70;;;11.73;;
68234;SDS011;55052;52.056;5.296;2023-07-22T08:33:11;20.67;;;11.35;;
68234;SDS011;55052;52.056;5.296;2023-07-22T08:35:40;19.15;;;11.40;;
68234;SDS011;55052;52.056;5.296;2023-07-22T08:38:07;19.77;;;11.20;;
68234;SDS011;55052;52.056;5.296;2023-07-22T08:43:02;21.27;;;10.40;;
68234;SDS011;55052;52.056;5.296;2023-07-22T08:45:33;18.92;;;9.40;;
68234;SDS011;55052;52.056;5.296;2023-07-22T08:48:08;16.98;;;8.63;;
68234;SDS011;55052;52.056;5.296;2023-07-22T08:50:42;16.15;;;8.10;;
68234;SDS011;55052;52.056;5.296;2023-07-22T08:53:21;16.67;;;8.25;;
68234;SDS011;55052;52.056;5.296;2023-07-22T08:55:51;14.07;;;8.13;;
68234;SDS011;55052;52.056;5.296;2023-07-22T08:58:19;16.33;;;7.50;;
68234;SDS011;55052;52.056;5.296;2023-07-22T09:00:46;18.73;;;8.30;;
68234;SDS011;55052;52.056;5.296;2023-07-22T09:03:14;15.50;;;7.82;;
68234;SDS011;55052;52.056;5.296;2023-07-22T09:05:42;15.75;;;7.68;;
68234;SDS011;55052;52.056;5.296;2023-07-22T09:08:11;13.57;;;7.32;;
68234;SDS011;55052;52.056;5.296;2023-07-22T09:10:38;13.32;;;7.38;;
68234;SDS011;55052;52.056;5.296;2023-07-22T09:13:06;14.85;;;6.95;;
68234;SDS011;55052;52.056;5.296;2023-07-22T09:15:34;13.27;;;6.90;;
68234;SDS011;55052;52.056;5.296;2023-07-22T09:18:05;13.15;;;7.47;;
68234;SDS011;55052;52.056;5.296;2023-07-22T09:20:32;17.50;;;8.37;;
68234;SDS011;55052;52.056;5.296;2023-07-22T09:23:00;12.35;;;7.18;;
68234;SDS011;55052;52.056;5.296;2023-07-22T09:25:39;16.30;;;7.13;;
68234;SDS011;55052;52.056;5.296;2023-07-22T09:28:07;13.30;;;7.93;;
68234;SDS011;55052;52.056;5.296;2023-07-22T09:30:34;13.70;;;7.40;;
68234;SDS011;55052;52.056;5.296;2023-07-22T09:33:03;15.32;;;6.60;;
68234;SDS011;55052;52.056;5.296;2023-07-22T09:35:53;12.27;;;7.13;;
68234;SDS011;55052;52.056;5.296;2023-07-22T09:38:25;10.95;;;6.03;;
68234;SDS011;55052;52.056;5.296;2023-07-22T09:40:52;11.70;;;6.85;;
68234;SDS011;55052;52.056;5.296;2023-07-22T09:43:20;11.05;;;6.63;;
68234;SDS011;55052;52.056;5.296;2023-07-22T09:45:49;12.27;;;6.78;;
68234;SDS011;55052;52.056;5.296;2023-07-22T09:48:16;12.93;;;7.35;;
68234;SDS011;55052;52.056;5.296;2023-07-22T09:50:43;13.38;;;7.07;;
68234;SDS011;55052;52.056;5.296;2023-07-22T09:53:10;13.07;;;6.28;;
68234;SDS011;55052;52.056;5.296;2023-07-22T09:55:42;9.73;;;5.40;;
68234;SDS011;55052;52.056;5.296;2023-07-22T09:58:10;10.18;;;5.72;;
68234;SDS011;55052;52.056;5.296;2023-07-22T10:00:41;11.30;;;5.65;;
68234;SDS011;55052;52.056;5.296;2023-07-22T10:03:13;11.05;;;5.50;;
68234;SDS011;55052;52.056;5.296;2023-07-22T10:05:42;10.93;;;4.93;;
68234;SDS011;55052;52.056;5.296;2023-07-22T10:08:14;9.85;;;5.03;;
68234;SDS011;55052;52.056;5.296;2023-07-22T10:10:44;11.35;;;5.00;;
68234;SDS011;55052;52.056;5.296;2023-07-22T10:13:12;9.43;;;4.60;;
68234;SDS011;55052;52.056;5.296;2023-07-22T10:15:38;12.60;;;5.10;;
68234;SDS011;55052;52.056;5.296;2023-07-22T10:18:05;12.65;;;5.22;;
68234;SDS011;55052;52.056;5.296;2023-07-22T10:20:32;10.85;;;5.38;;
68234;SDS011;55052;52.056;5.296;2023-07-22T10:23:03;8.07;;;4.32;;
68234;SDS011;55052;52.056;5.296;2023-07-22T10:25:30;8.38;;;4.47;;
68234;SDS011;55052;52.056;5.296;2023-07-22T10:27:57;7.20;;;4.00;;
68234;SDS011;55052;52.056;5.296;2023-07-22T10:30:24;8.30;;;4.50;;
68234;SDS011;55052;52.056;5.296;2023-07-22T10:32:51;9.82;;;4.90;;
68234;SDS011;55052;52.056;5.296;2023-07-22T10:40:51;9.98;;;4.85;;
68234;SDS011;55052;52.056;5.296;2023-07-22T10:45:54;8.98;;;4.53;;
68234;SDS011;55052;52.056;5.296;2023-07-22T10:48:23;9.00;;;4.97;;
68234;SDS011;55052;52.056;5.296;2023-07-22T10:50:55;13.25;;;5.07;;
68234;SDS011;55052;52.056;5.296;2023-07-22T10:53:30;7.88;;;4.65;;
68234;SDS011;55052;52.056;5.296;2023-07-22T11:12:07;14.48;;;5.70;;
68234;SDS011;55052;52.056;5.296;2023-07-22T11:14:46;12.55;;;5.22;;
68234;SDS011;55052;52.056;5.296;2023-07-22T11:17:15;10.93;;;5.40;;
68234;SDS011;55052;52.056;5.296;2023-07-22T11:19:44;10.43;;;5.90;;
68234;SDS011;55052;52.056;5.296;2023-07-22T11:22:11;8.35;;;4.82;;
68234;SDS011;55052;52.056;5.296;2023-07-22T11:24:38;10.43;;;5.50;;
68234;SDS011;55052;52.056;5.296;2023-07-22T11:27:06;12.10;;;4.85;;
68234;SDS011;55052;52.056;5.296;2023-07-22T11:29:34;12.57;;;4.82;;
68234;SDS011;55052;52.056;5.296;2023-07-22T11:32:02;8.93;;;4.70;;
68234;SDS011;55052;52.056;5.296;2023-07-22T11:34:31;9.40;;;4.82;;
68234;SDS011;55052;52.056;5.296;2023-07-22T11:36:58;12.80;;;5.05;;
68234;SDS011;55052;52.056;5.296;2023-07-22T11:39:26;10.43;;;4.40;;
68234;SDS011;55052;52.056;5.296;2023-07-22T11:41:55;10.00;;;4.73;;
68234;SDS011;55052;52.056;5.296;2023-07-22T11:44:22;11.10;;;5.00;;
68234;SDS011;55052;52.056;5.296;2023-07-22T11:46:55;9.13;;;4.80;;
68234;SDS011;55052;52.056;5.296;2023-07-22T11:49:33;8.05;;;4.38;;
68234;SDS011;55052;52.056;5.296;2023-07-22T11:52:16;11.07;;;4.57;;
68234;SDS011;55052;52.056;5.296;2023-07-22T11:54:44;8.20;;;4.30;;
68234;SDS011;55052;52.056;5.296;2023-07-22T11:57:16;8.43;;;4.35;;
68234;SDS011;55052;52.056;5.296;2023-07-22T11:59:44;8.07;;;4.38;;
68234;SDS011;55052;52.056;5.296;2023-07-22T12:02:19;11.93;;;4.53;;
68234;SDS011;55052;52.056;5.296;2023-07-22T12:04:53;11.85;;;4.60;;
68234;SDS011;55052;52.056;5.296;2023-07-22T12:09:57;10.57;;;4.45;;
68234;SDS011;55052;52.056;5.296;2023-07-22T12:12:34;12.38;;;4.78;;
68234;SDS011;55052;52.056;5.296;2023-07-22T12:15:11;9.13;;;4.85;;
68234;SDS011;55052;52.056;5.296;2023-07-22T12:17:54;11.63;;;4.40;;
68234;SDS011;55052;52.056;5.296;2023-07-22T12:20:29;10.10;;;3.53;;
68234;SDS011;55052;52.056;5.296;2023-07-22T12:22:58;10.95;;;3.67;;
68234;SDS011;55052;52.056;5.296;2023-07-22T12:25:25;8.75;;;3.65;;
68234;SDS011;55052;52.056;5.296;2023-07-22T12:27:52;8.05;;;3.65;;
68234;SDS011;55052;52.056;5.296;2023-07-22T12:30:19;6.32;;;3.28;;
68234;SDS011;55052;52.056;5.296;2023-07-22T12:32:47;11.05;;;4.25;;
68234;SDS011;55052;52.056;5.296;2023-07-22T12:35:16;7.88;;;4.47;;
68234;SDS011;55052;52.056;5.296;2023-07-22T12:37:43;9.05;;;4.10;;
68234;SDS011;55052;52.056;5.296;2023-07-22T12:40:10;10.48;;;4.90;;
68234;SDS011;55052;52.056;5.296;2023-07-22T12:42:38;9.77;;;4.53;;
68234;SDS011;55052;52.056;5.296;2023-07-22T12:45:06;10.95;;;4.40;;
68234;SDS011;55052;52.056;5.296;2023-07-22T12:47:34;7.60;;;4.75;;
68234;SDS011;55052;52.056;5.296;2023-07-22T12:50:01;8.65;;;4.82;;
68234;SDS011;55052;52.056;5.296;2023-07-22T12:52:28;7.75;;;4.88;;
68234;SDS011;55052;52.056;5.296;2023-07-22T12:54:55;7.72;;;4.10;;
68234;SDS011;55052;52.056;5.296;2023-07-22T12:57:21;10.63;;;4.50;;
68234;SDS011;55052;52.056;5.296;2023-07-22T12:59:48;7.30;;;4.10;;
68234;SDS011;55052;52.056;5.296;2023-07-22T13:02:16;9.07;;;3.60;;
68234;SDS011;55052;52.056;5.296;2023-07-22T13:04:43;7.03;;;3.55;;
68234;SDS011;55052;52.056;5.296;2023-07-22T13:07:10;9.40;;;4.07;;
68234;SDS011;55052;52.056;5.296;2023-07-22T13:09:37;8.38;;;3.53;;
68234;SDS011;55052;52.056;5.296;2023-07-22T13:12:04;6.88;;;3.35;;
68234;SDS011;55052;52.056;5.296;2023-07-22T13:14:32;7.25;;;3.50;;
68234;SDS011;55052;52.056;5.296;2023-07-22T13:16:58;6.63;;;3.20;;
68234;SDS011;55052;52.056;5.296;2023-07-22T13:19:25;8.73;;;3.55;;
68234;SDS011;55052;52.056;5.296;2023-07-22T13:21:52;9.75;;;3.65;;
68234;SDS011;55052;52.056;5.296;2023-07-22T13:24:21;7.40;;;3.35;;
68234;SDS011;55052;52.056;5.296;2023-07-22T13:26:48;9.13;;;3.53;;
68234;SDS011;55052;52.056;5.296;2023-07-22T13:29:14;11.05;;;3.38;;
68234;SDS011;55052;52.056;5.296;2023-07-22T13:31:41;9.07;;;3.70;;
68234;SDS011;55052;52.056;5.296;2023-07-22T13:34:08;9.38;;;3.55;;
68234;SDS011;55052;52.056;5.296;2023-07-22T13:36:35;7.15;;;3.17;;
68234;SDS011;55052;52.056;5.296;2023-07-22T13:39:02;6.03;;;2.78;;
68234;SDS011;55052;52.056;5.296;2023-07-22T13:41:29;10.00;;;3.05;;
68234;SDS011;55052;52.056;5.296;2023-07-22T13:43:56;7.20;;;3.00;;
68234;SDS011;55052;52.056;5.296;2023-07-22T13:46:22;7.00;;;2.42;;
68234;SDS011;55052;52.056;5.296;2023-07-22T13:48:49;8.90;;;2.50;;
68234;SDS011;55052;52.056;5.296;2023-07-22T13:51:16;6.13;;;2.45;;
68234;SDS011;55052;52.056;5.296;2023-07-22T13:53:43;6.93;;;2.50;;
68234;SDS011;55052;52.056;5.296;2023-07-22T13:56:10;4.97;;;2.28;;
68234;SDS011;55052;52.056;5.296;2023-07-22T13:58:36;7.60;;;2.40;;
68234;SDS011;55052;52.056;5.296;2023-07-22T14:01:03;5.72;;;2.30;;
68234;SDS011;55052;52.056;5.296;2023-07-22T14:03:30;5.10;;;1.92;;
68234;SDS011;55052;52.056;5.296;2023-07-22T14:05:57;5.32;;;2.17;;
68234;SDS011;55052;52.056;5.296;2023-07-22T14:08:23;4.55;;;2.20;;
68234;SDS011;55052;52.056;5.296;2023-07-22T14:10:50;5.60;;;2.40;;
68234;SDS011;55052;52.056;5.296;2023-07-22T14:13:17;5.05;;;2.60;;
68234;SDS011;55052;52.056;5.296;2023-07-22T14:15:44;6.07;;;2.35;;
68234;SDS011;55052;52.056;5.296;2023-07-22T14:18:11;6.93;;;2.58;;
68234;SDS011;55052;52.056;5.296;2023-07-22T14:20:43;6.28;;;2.67;;
68234;SDS011;55052;52.056;5.296;2023-07-22T14:23:11;6.35;;;2.55;;
68234;SDS011;55052;52.056;5.296;2023-07-22T14:25:39;5.57;;;2.33;;
68234;SDS011;55052;52.056;5.296;2023-07-22T14:28:05;6.68;;;2.60;;
68234;SDS011;55052;52.056;5.296;2023-07-22T14:30:32;4.80;;;2.28;;
68234;SDS011;55052;52.056;5.296;2023-07-22T14:32:59;7.35;;;2.35;;
68234;SDS011;55052;52.056;5.296;2023-07-22T14:35:26;7.30;;;2.40;;
68234;SDS011;55052;52.056;5.296;2023-07-22T14:37:53;11.52;;;2.70;;
68234;SDS011;55052;52.056;5.296;2023-07-22T14:40:20;5.63;;;2.50;;
68234;SDS011;55052;52.056;5.296;2023-07-22T14:42:47;6.53;;;2.50;;
68234;SDS011;55052;52.056;5.296;2023-07-22T14:45:14;6.00;;;2.40;;
68234;SDS011;55052;52.056;5.296;2023-07-22T14:47:41;8.10;;;2.55;;
68234;SDS011;55052;52.056;5.296;2023-07-22T14:50:08;5.72;;;2.42;;
68234;SDS011;55052;52.056;5.296;2023-07-22T14:52:35;7.93;;;2.60;;
68234;SDS011;55052;52.056;5.296;2023-07-22T14:55:02;6.80;;;2.90;;
68234;SDS011;55052;52.056;5.296;2023-07-22T14:57:30;6.78;;;2.58;;
68234;SDS011;55052;52.056;5.296;2023-07-22T14:59:57;6.60;;;2.40;;
68234;SDS011;55052;52.056;5.296;2023-07-22T15:02:24;7.43;;;2.53;;
68234;SDS011;55052;52.056;5.296;2023-07-22T15:04:51;6.78;;;3.67;;
68234;SDS011;55052;52.056;5.296;2023-07-22T15:07:18;15.80;;;9.77;;
68234;SDS011;55052;52.056;5.296;2023-07-22T15:09:44;7.05;;;3.85;;
68234;SDS011;55052;52.056;5.296;2023-07-22T15:12:11;7.57;;;3.22;;
68234;SDS011;55052;52.056;5.296;2023-07-22T15:14:41;7.78;;;4.97;;
68234;SDS011;55052;52.056;5.296;2023-07-22T15:17:10;5.85;;;3.03;;
68234;SDS011;55052;52.056;5.296;2023-07-22T15:19:36;7.93;;;3.92;;